createdAt,value
2023-04-26T00:00:17.678Z,10.40
2023-04-26T00:03:21.780Z,10.30
2023-04-26T00:06:25.015Z,10.30
2023-04-26T00:09:29.481Z,10.20
2023-04-26T00:12:35.219Z,10.20
2023-04-26T00:15:38.597Z,10.20
2023-04-26T00:18:41.728Z,10.10
2023-04-26T00:21:44.941Z,10.10
2023-04-26T00:24:49.423Z,10.20
2023-04-26T00:27:53.675Z,10.20
2023-04-26T00:30:58.022Z,10.20
2023-04-26T00:34:01.217Z,10.20
2023-04-26T00:37:05.153Z,10.20
2023-04-26T00:40:11.173Z,10.20
2023-04-26T00:43:14.301Z,10.10
2023-04-26T00:46:17.530Z,10.00
2023-04-26T00:49:24.389Z,10.00
2023-04-26T00:52:28.497Z,9.90
2023-04-26T00:55:33.045Z,9.90
2023-04-26T00:58:36.231Z,9.80
2023-04-26T01:01:40.775Z,9.80
2023-04-26T01:04:45.377Z,9.70
2023-04-26T01:07:49.153Z,9.60
2023-04-26T01:10:54.213Z,9.70
2023-04-26T01:13:58.520Z,9.60
2023-04-26T01:17:01.864Z,9.60
2023-04-26T01:20:05.927Z,9.50
2023-04-26T01:23:10.505Z,9.50
2023-04-26T01:26:13.662Z,9.40
2023-04-26T01:29:18.045Z,9.40
2023-04-26T01:32:21.110Z,9.50
2023-04-26T01:35:24.218Z,9.50
2023-04-26T01:38:28.706Z,9.50
2023-04-26T01:41:32.839Z,9.40
2023-04-26T01:44:35.923Z,9.40
2023-04-26T01:47:39.287Z,9.30
2023-04-26T01:50:42.429Z,9.30
2023-04-26T01:53:46.943Z,9.20
2023-04-26T01:56:50.024Z,9.20
2023-04-26T01:59:54.275Z,9.10
2023-04-26T02:02:58.023Z,9.10
2023-04-26T02:06:01.147Z,9.10
2023-04-26T02:09:05.978Z,9.00
2023-04-26T02:12:09.106Z,9.00
2023-04-26T02:15:12.865Z,9.00
2023-04-26T02:18:16.067Z,8.90
2023-04-26T02:21:19.505Z,8.90
2023-04-26T02:24:24.186Z,8.80
2023-04-26T02:27:27.848Z,8.80
2023-04-26T02:30:31.594Z,8.80
2023-04-26T02:33:34.762Z,8.80
2023-04-26T02:36:37.935Z,8.80
2023-04-26T02:39:42.413Z,8.80
2023-04-26T02:42:45.639Z,8.80
2023-04-26T02:45:48.705Z,8.70
2023-04-26T02:48:52.028Z,8.70
2023-04-26T02:51:55.286Z,8.70
2023-04-26T02:55:01.082Z,8.60
2023-04-26T02:58:04.196Z,8.50
2023-04-26T03:01:07.302Z,8.50
2023-04-26T03:04:10.806Z,8.40
2023-04-26T03:07:14.014Z,8.40
2023-04-26T03:10:18.671Z,8.30
2023-04-26T03:13:24.382Z,8.20
2023-04-26T03:16:29.396Z,8.20
2023-04-26T03:19:32.877Z,8.10
2023-04-26T03:22:35.999Z,8.10
2023-04-26T03:25:43.255Z,8.20
2023-04-26T03:28:46.383Z,8.10
2023-04-26T03:31:49.579Z,8.10
2023-04-26T03:34:52.746Z,8.00
2023-04-26T03:37:58.454Z,8.00
2023-04-26T03:41:03.179Z,8.00
2023-04-26T03:44:06.520Z,7.90
2023-04-26T03:47:09.624Z,7.80
2023-04-26T03:50:12.945Z,7.80
2023-04-26T03:53:16.056Z,7.90
2023-04-26T03:56:20.513Z,7.80
2023-04-26T03:59:23.562Z,7.90
2023-04-26T04:02:26.762Z,7.80
2023-04-26T04:05:30.043Z,7.70
2023-04-26T04:08:33.911Z,7.90
2023-04-26T04:11:38.391Z,7.90
2023-04-26T04:14:41.621Z,7.90
2023-04-26T04:17:44.774Z,7.90
2023-04-26T04:20:47.938Z,8.00
2023-04-26T04:23:51.276Z,8.10
2023-04-26T04:26:56.127Z,8.10
2023-04-26T04:29:59.241Z,8.20
2023-04-26T04:33:02.930Z,8.20
2023-04-26T04:36:06.759Z,8.30
2023-04-26T04:39:16.247Z,8.50
2023-04-26T04:42:21.585Z,8.60
2023-04-26T04:45:24.883Z,8.80
2023-04-26T04:48:28.017Z,8.90
2023-04-26T04:51:31.090Z,9.10
2023-04-26T04:54:34.591Z,9.10
2023-04-26T04:57:40.670Z,9.20
2023-04-26T05:00:46.991Z,9.30
2023-04-26T05:03:50.313Z,9.30
2023-04-26T05:06:53.611Z,9.30
2023-04-26T05:09:56.837Z,9.40
2023-04-26T05:13:01.291Z,9.50
2023-04-26T05:16:04.516Z,9.60
2023-04-26T05:19:09.504Z,9.70
2023-04-26T05:22:13.208Z,9.80
2023-04-26T05:25:17.276Z,9.70
2023-04-26T05:28:22.053Z,9.70
2023-04-26T05:31:25.219Z,9.80
2023-04-26T05:34:28.301Z,9.80
2023-04-26T05:37:31.745Z,10.00
2023-04-26T05:40:34.896Z,10.40
2023-04-26T05:43:40.427Z,11.00
2023-04-26T05:46:43.561Z,11.20
2023-04-26T05:49:46.660Z,11.50
2023-04-26T05:52:49.837Z,11.60
2023-04-26T05:55:52.932Z,11.50
2023-04-26T05:58:57.457Z,11.40
2023-04-26T06:02:00.603Z,11.30
2023-04-26T06:05:05.238Z,11.20
2023-04-26T06:08:08.784Z,11.20
2023-04-26T06:11:11.980Z,12.00
2023-04-26T06:14:29.232Z,13.60
2023-04-26T06:17:34.050Z,15.00
2023-04-26T06:20:37.309Z,16.10
2023-04-26T06:23:40.533Z,17.10
2023-04-26T06:26:43.731Z,18.00
2023-04-26T06:29:48.458Z,18.70
2023-04-26T06:32:51.638Z,18.60
2023-04-26T06:35:54.789Z,18.60
2023-04-26T06:38:57.925Z,19.00
2023-04-26T06:42:01.016Z,18.70
2023-04-26T06:45:06.694Z,19.60
2023-04-26T06:48:09.849Z,20.00
2023-04-26T06:51:13.092Z,19.60
2023-04-26T06:54:16.369Z,19.10
2023-04-26T06:57:19.463Z,20.00
2023-04-26T07:00:24.354Z,21.30
2023-04-26T07:03:27.611Z,22.80
2023-04-26T07:06:31.270Z,23.80
2023-04-26T07:09:34.641Z,24.90
2023-04-26T07:12:37.846Z,25.10
2023-04-26T07:15:42.399Z,24.50
2023-04-26T07:18:45.627Z,24.40
2023-04-26T07:21:48.714Z,24.80
2023-04-26T07:24:51.834Z,24.50
2023-04-26T07:27:54.930Z,24.60
2023-04-26T07:30:59.653Z,23.70
2023-04-26T07:34:02.803Z,23.20
2023-04-26T07:37:05.912Z,23.30
2023-04-26T07:40:10.629Z,23.80
2023-04-26T07:43:15.497Z,24.20
2023-04-26T07:46:20.015Z,22.60
2023-04-26T07:49:23.141Z,21.20
2023-04-26T07:52:26.269Z,20.40
2023-04-26T07:55:29.582Z,20.60
2023-04-26T07:58:33.060Z,20.70
2023-04-26T08:01:37.811Z,19.70
2023-04-26T08:04:48.630Z,18.30
2023-04-26T08:07:52.065Z,17.10
2023-04-26T08:10:55.735Z,16.70
2023-04-26T08:13:58.803Z,16.50
2023-04-26T08:17:03.754Z,16.40
2023-04-26T08:20:09.714Z,16.40
2023-04-26T08:23:13.015Z,16.40
2023-04-26T08:26:16.164Z,16.20
2023-04-26T08:29:19.280Z,16.40
2023-04-26T08:32:23.857Z,16.60
2023-04-26T08:35:27.217Z,16.90
2023-04-26T08:38:30.896Z,17.50
2023-04-26T08:41:38.133Z,18.10
2023-04-26T08:44:43.773Z,18.40
2023-04-26T08:47:50.359Z,18.40
2023-04-26T08:50:55.057Z,18.00
2023-04-26T08:54:02.124Z,18.20
2023-04-26T08:57:07.665Z,18.30
2023-04-26T09:00:13.634Z,18.20
2023-04-26T09:03:18.406Z,17.90
2023-04-26T09:06:22.082Z,17.70
2023-04-26T09:09:29.433Z,17.40
2023-04-26T09:12:32.932Z,17.40
2023-04-26T09:15:36.465Z,17.30
2023-04-26T09:18:52.595Z,17.30
2023-04-26T09:21:56.665Z,17.10
2023-04-26T09:25:00.073Z,16.90
2023-04-26T09:28:04.265Z,16.60
2023-04-26T09:31:07.448Z,16.50
2023-04-26T09:34:13.010Z,17.20
2023-04-26T09:37:16.795Z,17.90
2023-04-26T09:40:20.577Z,18.20
2023-04-26T09:43:24.518Z,18.20
2023-04-26T09:46:27.697Z,18.10
2023-04-26T09:49:33.584Z,18.00
2023-04-26T09:52:44.578Z,17.90
2023-04-26T09:55:49.663Z,18.10
2023-04-26T09:59:00.875Z,18.30
2023-04-26T10:02:04.966Z,18.50
2023-04-26T10:05:10.168Z,18.80
2023-04-26T10:08:15.326Z,19.10
2023-04-26T10:11:19.198Z,19.40
2023-04-26T10:14:22.451Z,19.60
2023-04-26T10:17:25.633Z,19.60
2023-04-26T10:20:30.802Z,20.30
2023-04-26T10:23:34.763Z,20.50
2023-04-26T10:26:52.118Z,20.10
2023-04-26T10:30:12.635Z,19.60
2023-04-26T10:33:16.651Z,19.20
2023-04-26T10:36:24.332Z,19.20
2023-04-26T10:39:28.244Z,19.10
2023-04-26T10:42:32.430Z,19.40
2023-04-26T10:45:36.140Z,19.20
2023-04-26T10:48:39.369Z,19.00
2023-04-26T10:52:11.618Z,19.00
2023-04-26T10:55:41.827Z,19.10
2023-04-26T10:58:47.772Z,19.10
2023-04-26T11:01:51.104Z,19.20
2023-04-26T11:04:54.860Z,19.20
2023-04-26T11:08:07.136Z,19.10
2023-04-26T11:11:13.779Z,19.10
2023-04-26T11:14:18.840Z,19.00
2023-04-26T11:17:21.998Z,19.30
2023-04-26T11:20:31.456Z,19.50
2023-04-26T11:23:36.724Z,19.60
2023-04-26T11:26:39.951Z,19.80
2023-04-26T11:29:43.033Z,20.00
2023-04-26T11:32:47.509Z,20.20
2023-04-26T11:35:51.245Z,20.00
2023-04-26T11:38:55.770Z,19.80
2023-04-26T11:42:07.219Z,19.70
2023-04-26T11:45:11.535Z,19.80
2023-04-26T11:48:15.640Z,19.90
2023-04-26T11:51:19.141Z,19.80
2023-04-26T11:54:31.537Z,19.70
2023-04-26T11:57:35.584Z,19.80
2023-04-26T12:00:39.131Z,19.80
2023-04-26T12:03:42.387Z,19.50
2023-04-26T12:06:47.478Z,19.40
2023-04-26T12:09:51.947Z,19.30
2023-04-26T12:12:57.016Z,19.30
2023-04-26T12:16:00.446Z,19.40
2023-04-26T12:19:06.752Z,19.60
2023-04-26T12:22:10.808Z,19.80
2023-04-26T12:25:15.311Z,19.90
2023-04-26T12:28:18.556Z,19.90
2023-04-26T12:31:21.803Z,19.80
2023-04-26T12:34:25.843Z,19.60
2023-04-26T12:37:28.934Z,19.50
2023-04-26T12:40:33.490Z,19.50
2023-04-26T12:43:36.843Z,19.50
2023-04-26T12:46:40.207Z,19.70
2023-04-26T12:49:43.435Z,19.60
2023-04-26T12:52:46.876Z,19.40
2023-04-26T12:55:51.316Z,19.10
2023-04-26T12:58:54.538Z,19.00
2023-04-26T13:01:57.954Z,19.00
2023-04-26T13:05:13.061Z,19.10
2023-04-26T13:08:20.431Z,19.10
2023-04-26T13:11:32.807Z,19.10
2023-04-26T13:14:36.048Z,19.10
2023-04-26T13:17:39.803Z,18.90
2023-04-26T13:20:43.000Z,18.90
2023-04-26T13:23:46.866Z,18.80
2023-04-26T13:26:51.327Z,18.80
2023-04-26T13:29:54.837Z,18.90
2023-04-26T13:33:00.130Z,19.20
2023-04-26T13:36:03.676Z,19.40
2023-04-26T13:39:07.401Z,19.50
2023-04-26T13:42:11.898Z,19.50
2023-04-26T13:45:16.587Z,19.50
2023-04-26T13:48:21.127Z,19.50
2023-04-26T13:51:25.193Z,19.40
2023-04-26T13:54:28.710Z,19.10
2023-04-26T13:57:33.277Z,18.80
2023-04-26T14:00:36.399Z,18.70
2023-04-26T14:03:39.742Z,18.60
2023-04-26T14:06:42.948Z,18.50
2023-04-26T14:09:48.748Z,18.60
2023-04-26T14:12:53.606Z,18.70
2023-04-26T14:19:08.704Z,19.00
2023-04-26T14:22:13.002Z,19.10
2023-04-26T14:25:16.818Z,19.00
2023-04-26T14:28:21.587Z,18.70
2023-04-26T14:31:26.208Z,18.50
2023-04-26T14:34:29.461Z,18.40
2023-04-26T14:37:32.557Z,18.30
2023-04-26T14:40:37.056Z,18.30
2023-04-26T14:43:41.570Z,18.20
2023-04-26T14:46:44.778Z,18.20
2023-04-26T14:49:48.003Z,18.30
2023-04-26T14:52:51.346Z,18.30
2023-04-26T14:55:56.592Z,18.30
2023-04-26T14:59:02.155Z,18.40
2023-04-26T15:02:05.656Z,18.50
2023-04-26T15:05:10.601Z,18.60
2023-04-26T15:08:13.780Z,18.60
2023-04-26T15:11:17.026Z,18.60
2023-04-26T15:14:21.553Z,18.60
2023-04-26T15:17:24.762Z,18.40
2023-04-26T15:20:27.897Z,18.30
2023-04-26T15:23:31.103Z,18.20
2023-04-26T15:26:34.261Z,18.00
2023-04-26T15:29:38.728Z,17.90
2023-04-26T15:32:42.195Z,17.70
2023-04-26T15:35:57.464Z,17.60
2023-04-26T15:39:09.692Z,17.40
2023-04-26T15:42:16.740Z,17.40
2023-04-26T15:45:26.850Z,17.30
2023-04-26T15:48:32.422Z,17.30
2023-04-26T15:51:39.329Z,17.30
2023-04-26T15:54:49.235Z,17.20
2023-04-26T15:57:54.469Z,17.00
2023-04-26T16:01:07.834Z,17.00
2023-04-26T16:04:17.752Z,17.00
2023-04-26T16:07:24.764Z,17.00
2023-04-26T16:10:31.785Z,17.00
2023-04-26T16:13:36.178Z,17.00
2023-04-26T16:16:51.168Z,16.90
2023-04-26T16:20:03.093Z,16.80
2023-04-26T16:23:07.943Z,16.70
2023-04-26T16:26:12.600Z,16.40
2023-04-26T16:29:22.056Z,16.40
2023-04-26T16:32:30.674Z,16.30
2023-04-26T16:35:36.350Z,16.30
2023-04-26T16:38:46.430Z,16.20
2023-04-26T16:41:51.256Z,16.20
2023-04-26T16:45:05.114Z,16.20
2023-04-26T16:48:11.054Z,16.20
2023-04-26T16:51:15.674Z,16.20
2023-04-26T16:54:29.264Z,16.20
2023-04-26T16:57:35.196Z,16.20
2023-04-26T17:00:40.836Z,16.10
2023-04-26T17:03:47.238Z,16.00
2023-04-26T17:06:58.325Z,15.90
2023-04-26T17:10:05.938Z,15.80
2023-04-26T17:13:22.503Z,15.70
2023-04-26T17:16:28.790Z,15.60
2023-04-26T17:19:43.167Z,15.50
2023-04-26T17:22:49.057Z,15.40
2023-04-26T17:25:55.327Z,15.30
2023-04-26T17:29:10.064Z,15.10
2023-04-26T17:32:15.435Z,15.00
2023-04-26T17:35:25.069Z,15.00
2023-04-26T17:38:38.409Z,14.90
2023-04-26T17:41:43.755Z,14.80
2023-04-26T17:44:47.787Z,14.80
2023-04-26T17:47:52.614Z,14.80
2023-04-26T17:51:00.850Z,14.80
2023-04-26T17:54:08.382Z,14.70
2023-04-26T17:57:18.836Z,14.60
2023-04-26T18:00:24.699Z,14.50
2023-04-26T18:03:33.926Z,14.30
2023-04-26T18:06:53.524Z,14.20
2023-04-26T18:13:19.561Z,13.90
2023-04-26T18:16:28.007Z,13.80
2023-04-26T18:19:32.508Z,13.70
2023-04-26T18:22:43.277Z,13.60
2023-04-26T18:25:50.620Z,13.60
2023-04-26T18:28:56.281Z,13.50
2023-04-26T18:32:04.887Z,13.50
2023-04-26T18:35:09.939Z,13.40
2023-04-26T18:38:19.647Z,13.40
2023-04-26T18:41:25.856Z,13.30
2023-04-26T18:44:34.240Z,13.30
2023-04-26T18:47:54.010Z,13.30
2023-04-26T18:51:07.388Z,13.20
2023-04-26T18:54:21.823Z,13.20
2023-04-26T18:57:29.162Z,13.10
2023-04-26T19:00:39.212Z,13.10
2023-04-26T19:03:45.291Z,13.10
2023-04-26T19:06:53.517Z,13.10
2023-04-26T19:10:09.061Z,13.10
2023-04-26T19:13:14.219Z,13.00
2023-04-26T19:19:47.579Z,12.90
2023-04-26T19:22:54.186Z,12.80
2023-04-26T19:26:06.560Z,12.80
2023-04-26T19:29:10.486Z,12.80
2023-04-26T19:32:15.788Z,12.70
2023-04-26T19:35:29.247Z,12.70
2023-04-26T19:38:32.889Z,12.60
2023-04-26T19:41:39.543Z,12.60
2023-04-26T19:44:43.654Z,12.50
2023-04-26T19:47:46.963Z,12.50
2023-04-26T19:50:51.607Z,12.40
2023-04-26T19:53:56.057Z,12.30
2023-04-26T19:57:04.040Z,12.30
2023-04-26T20:00:10.317Z,12.30
2023-04-26T20:03:13.465Z,12.20
2023-04-26T20:06:17.994Z,12.10
2023-04-26T20:09:22.729Z,12.10
2023-04-26T20:12:30.983Z,12.10
2023-04-26T20:15:35.755Z,12.00
2023-04-26T20:18:41.760Z,12.00
2023-04-26T20:21:48.189Z,11.90
2023-04-26T20:24:51.756Z,11.90
2023-04-26T20:27:58.352Z,11.80
2023-04-26T20:31:01.714Z,11.80
2023-04-26T20:34:06.221Z,11.70
2023-04-26T20:37:10.751Z,11.70
2023-04-26T20:40:14.642Z,11.60
2023-04-26T20:43:22.568Z,11.60
2023-04-26T20:46:25.834Z,11.60
2023-04-26T20:49:30.450Z,11.50
2023-04-26T20:55:54.497Z,11.50
2023-04-26T20:59:13.271Z,11.50
2023-04-26T21:02:18.081Z,11.40
2023-04-26T21:05:26.323Z,11.30
2023-04-26T21:08:31.808Z,11.30
2023-04-26T21:11:38.838Z,11.20
2023-04-26T21:14:46.374Z,11.30
2023-04-26T21:17:49.960Z,11.20
2023-04-26T21:21:10.133Z,11.20
2023-04-26T21:24:17.288Z,11.20
2023-04-26T21:27:28.981Z,11.10
2023-04-26T21:30:40.946Z,11.10
2023-04-26T21:33:54.706Z,11.10
2023-04-26T21:37:00.945Z,11.10
2023-04-26T21:40:06.628Z,11.10
2023-04-26T21:43:15.571Z,11.10
2023-04-26T21:46:34.272Z,11.00
2023-04-26T21:49:40.324Z,11.10
2023-04-26T21:52:46.350Z,11.10
2023-04-26T21:55:57.722Z,11.10
2023-04-26T21:59:03.247Z,11.10
2023-04-26T22:02:10.202Z,11.10
2023-04-26T22:05:26.281Z,11.10
2023-04-26T22:08:30.935Z,11.00
2023-04-26T22:11:35.570Z,11.00
2023-04-26T22:14:42.654Z,11.00
2023-04-26T22:17:56.820Z,11.00
2023-04-26T22:21:12.082Z,11.00
2023-04-26T22:24:16.726Z,11.00
2023-04-26T22:27:22.441Z,11.00
2023-04-26T22:30:27.106Z,11.00
2023-04-26T22:33:36.746Z,11.00
2023-04-26T22:36:43.008Z,11.00
2023-04-26T22:39:47.470Z,10.90
2023-04-26T22:43:04.354Z,10.90
2023-04-26T22:46:09.076Z,10.80
2023-04-26T22:49:25.722Z,10.80
2023-04-26T22:52:33.099Z,10.80
2023-04-26T22:55:39.236Z,10.70
2023-04-26T22:58:45.898Z,10.80
2023-04-26T23:05:20.315Z,10.80
2023-04-26T23:08:25.017Z,10.80
2023-04-26T23:11:41.823Z,10.70
2023-04-26T23:14:46.667Z,10.70
2023-04-26T23:17:57.559Z,10.70
2023-04-26T23:21:13.038Z,10.70
2023-04-26T23:24:21.806Z,10.70
2023-04-26T23:27:26.072Z,10.70
2023-04-26T23:30:34.165Z,10.60
2023-04-26T23:33:39.822Z,10.60
2023-04-26T23:37:07.150Z,10.70
2023-04-26T23:40:15.887Z,10.70
2023-04-26T23:43:21.996Z,10.70
2023-04-26T23:46:26.812Z,10.80
2023-04-26T23:49:32.212Z,10.80
2023-04-26T23:52:47.412Z,10.70
2023-04-26T23:55:53.990Z,10.80
2023-04-26T23:59:01.248Z,10.80
